Time;durP1;ratioP1;P1;durP2;ratioP2;P2;SDS_P1;SDS_P2;PMS_P1;PMS_P2;Temp;Humidity;BMP_temperature;BMP_pressure;BME280_temperature;BME280_humidity;BME280_pressure;Samples;Min_cycle;Max_cycle;Signal;HPM_P1;HPM_P2
2023/06/05 00:01:48;;;;;;;9.15;4.88;;;10.10;99.90;;;;;;5087577;28;20047;-90
2023/06/05 00:04:15;;;;;;;6.38;4.72;;;10.00;99.90;;;;;;5098183;28;20052;-89
2023/06/05 00:06:40;;;;;;;9.68;5.72;;;10.00;99.90;;;;;;5082713;28;20073;-89
2023/06/05 00:09:07;;;;;;;6.30;4.47;;;10.00;99.90;;;;;;5101377;28;20055;-90
2023/06/05 00:11:34;;;;;;;9.95;5.32;;;10.00;99.90;;;;;;5092436;28;20127;-90
2023/06/05 00:14:00;;;;;;;8.77;5.43;;;9.90;99.90;;;;;;5107507;28;20051;-90
2023/06/05 00:16:25;;;;;;;9.32;4.68;;;9.90;99.90;;;;;;5109625;28;20536;-90
2023/06/05 00:18:51;;;;;;;7.82;5.05;;;9.90;99.90;;;;;;5099809;28;20047;-89
2023/06/05 00:21:16;;;;;;;6.63;4.40;;;9.90;99.90;;;;;;5096680;28;20404;-89
2023/06/05 00:23:43;;;;;;;5.75;4.88;;;9.90;99.90;;;;;;5104090;28;20031;-88
2023/06/05 00:26:09;;;;;;;5.20;4.70;;;10.50;99.90;;;;;;5096571;28;20044;-89
2023/06/05 00:28:34;;;;;;;6.20;5.18;;;9.90;99.90;;;;;;5096394;28;20047;-87
2023/06/05 00:31:01;;;;;;;5.85;4.53;;;9.80;99.90;;;;;;5104753;28;20060;-89
2023/06/05 00:33:29;;;;;;;6.22;4.60;;;9.90;99.90;;;;;;5099369;28;20499;-88
2023/06/05 00:35:55;;;;;;;8.85;5.32;;;9.80;99.90;;;;;;5091522;28;20106;-89
2023/06/05 00:38:21;;;;;;;6.82;5.45;;;9.80;99.90;;;;;;5081853;28;20107;-89
2023/06/05 00:40:46;;;;;;;7.03;5.28;;;9.80;99.90;;;;;;5101412;28;20032;-90
2023/06/05 00:43:12;;;;;;;8.68;5.47;;;9.80;99.90;;;;;;5090439;28;20051;-88
2023/06/05 00:45:37;;;;;;;9.57;5.75;;;9.80;99.90;;;;;;5107429;28;20047;-88
2023/06/05 00:48:03;;;;;;;9.52;6.22;;;9.80;99.90;;;;;;5094107;28;20052;-88
2023/06/05 00:50:32;;;;;;;7.30;4.85;;;9.80;99.90;;;;;;5103657;28;20101;-89
2023/06/05 00:52:58;;;;;;;6.85;5.13;;;10.30;99.90;;;;;;5094236;28;20040;-88
2023/06/05 00:55:25;;;;;;;8.73;5.53;;;9.70;99.90;;;;;;5098684;28;20131;-89
2023/06/05 00:57:50;;;;;;;6.20;4.80;;;9.70;99.90;;;;;;5096318;28;20093;-89
2023/06/05 01:00:16;;;;;;;7.00;5.55;;;9.70;99.90;;;;;;5102723;28;20061;-89
2023/06/05 01:02:42;;;;;;;6.25;5.10;;;9.70;99.90;;;;;;5105043;28;20158;-89
2023/06/05 01:05:08;;;;;;;9.05;6.25;;;9.60;99.90;;;;;;5096446;28;20040;-88
2023/06/05 01:07:34;;;;;;;6.57;5.40;;;9.60;99.90;;;;;;5096856;28;20043;-90
2023/06/05 01:10:03;;;;;;;6.90;5.63;;;9.60;99.90;;;;;;5094990;28;20131;-87
2023/06/05 01:12:38;;;;;;;9.02;5.45;;;9.60;99.90;;;;;;5099420;28;20056;-89
2023/06/05 01:15:08;;;;;;;9.25;5.90;;;9.60;99.90;;;;;;5087658;28;20093;-88
2023/06/05 01:17:35;;;;;;;7.10;5.50;;;9.50;99.90;;;;;;5088987;28;20044;-88
2023/06/05 01:20:08;;;;;;;9.38;5.95;;;9.50;99.90;;;;;;5087967;28;20157;-89
2023/06/05 01:22:34;;;;;;;7.57;5.40;;;9.50;99.90;;;;;;5104137;28;20043;-89
2023/06/05 01:25:01;;;;;;;9.70;6.43;;;9.50;99.90;;;;;;5106671;28;20134;-89
2023/06/05 01:27:38;;;;;;;10.77;5.80;;;9.40;99.90;;;;;;5083373;28;20039;-90
2023/06/05 01:30:24;;;;;;;11.48;5.72;;;9.40;99.90;;;;;;5098834;28;20059;-89
2023/06/05 01:32:56;;;;;;;7.22;5.82;;;9.40;99.90;;;;;;5108035;28;20055;-89
2023/06/05 01:35:27;;;;;;;9.45;6.32;;;9.40;99.90;;;;;;5087533;28;20032;-90
2023/06/05 01:37:54;;;;;;;8.35;6.28;;;9.30;99.90;;;;;;5104718;28;20045;-90
2023/06/05 01:40:22;;;;;;;7.35;6.38;;;9.30;99.90;;;;;;5107655;28;20554;-89
2023/06/05 01:42:50;;;;;;;8.07;6.13;;;9.30;99.90;;;;;;5087889;28;20048;-89
2023/06/05 01:45:16;;;;;;;7.85;6.35;;;9.30;99.90;;;;;;5087190;28;20050;-89
2023/06/05 01:47:43;;;;;;;7.68;5.80;;;9.40;99.90;;;;;;5094773;28;20044;-89
2023/06/05 01:50:12;;;;;;;8.48;6.18;;;9.30;99.90;;;;;;5088380;28;20051;-90
2023/06/05 01:52:39;;;;;;;12.63;7.05;;;9.40;99.90;;;;;;5081665;28;20068;-90
2023/06/05 01:55:14;;;;;;;8.52;6.47;;;9.40;99.90;;;;;;5098091;28;20044;-91
2023/06/05 01:57:44;;;;;;;9.90;6.35;;;9.40;99.90;;;;;;5097910;28;20040;-89
2023/06/05 02:00:13;;;;;;;9.95;6.75;;;9.40;99.90;;;;;;5093184;28;20167;-89
2023/06/05 02:02:42;;;;;;;9.85;6.45;;;9.40;99.90;;;;;;5097075;28;20052;-90
2023/06/05 02:05:10;;;;;;;8.80;6.03;;;9.40;99.90;;;;;;5097156;28;20059;-89
2023/06/05 02:07:39;;;;;;;9.85;6.55;;;9.40;99.90;;;;;;5104793;28;20043;-90
2023/06/05 02:10:06;;;;;;;9.98;6.53;;;9.30;99.90;;;;;;5099174;28;20159;-90
2023/06/05 02:12:32;;;;;;;9.88;7.13;;;9.30;99.90;;;;;;5101515;28;20163;-88
2023/06/05 02:14:59;;;;;;;9.98;6.43;;;9.30;99.90;;;;;;5103466;28;20044;-89
2023/06/05 02:17:25;;;;;;;9.63;6.38;;;9.30;99.90;;;;;;5075211;28;20063;-89
2023/06/05 02:19:51;;;;;;;9.05;6.90;;;9.30;99.90;;;;;;5091333;28;20040;-89
2023/06/05 02:22:17;;;;;;;7.80;6.68;;;9.20;99.90;;;;;;5080371;28;20053;-89
2023/06/05 02:24:43;;;;;;;10.48;7.28;;;9.20;99.90;;;;;;5073796;28;20094;-89
2023/06/05 02:27:10;;;;;;;10.90;6.95;;;9.20;99.90;;;;;;5082675;28;20055;-89
2023/06/05 02:29:36;;;;;;;11.55;7.38;;;9.20;99.90;;;;;;5092696;28;20052;-88
2023/06/05 02:32:03;;;;;;;8.68;5.80;;;9.20;99.90;;;;;;5099122;28;20502;-87
2023/06/05 02:34:29;;;;;;;9.30;7.05;;;9.20;99.90;;;;;;5090389;28;20044;-88
2023/06/05 02:36:55;;;;;;;9.85;6.78;;;9.40;99.90;;;;;;5099004;28;20040;-88
2023/06/05 02:39:22;;;;;;;9.50;6.80;;;9.10;99.90;;;;;;5081842;28;20048;-88
2023/06/05 02:41:47;;;;;;;9.95;7.85;;;9.10;99.90;;;;;;5106426;28;20088;-89
2023/06/05 02:44:13;;;;;;;11.25;7.45;;;9.10;99.90;;;;;;5092150;28;20071;-88
2023/06/05 02:46:38;;;;;;;11.35;7.43;;;9.10;99.90;;;;;;5095154;28;20050;-88
2023/06/05 02:49:04;;;;;;;9.68;6.93;;;9.10;99.90;;;;;;5094069;28;20416;-88
2023/06/05 02:51:30;;;;;;;8.48;6.80;;;9.10;99.90;;;;;;5100207;28;20384;-89
2023/06/05 02:53:55;;;;;;;11.63;6.68;;;9.50;99.90;;;;;;5109741;28;20036;-88
2023/06/05 02:56:21;;;;;;;9.32;7.05;;;9.00;99.90;;;;;;5101312;28;20131;-88
2023/06/05 02:58:47;;;;;;;13.07;7.15;;;9.00;99.90;;;;;;5107228;28;20093;-88
2023/06/05 03:01:13;;;;;;;9.88;7.25;;;9.00;99.90;;;;;;5090423;28;20043;-88
2023/06/05 03:03:38;;;;;;;13.15;7.70;;;9.00;99.90;;;;;;5098878;28;20062;-88
2023/06/05 03:06:04;;;;;;;12.02;7.75;;;9.00;99.90;;;;;;5095142;28;20153;-89
2023/06/05 03:08:34;;;;;;;11.43;6.80;;;9.00;99.90;;;;;;5096462;28;20494;-87
2023/06/05 03:11:04;;;;;;;10.82;7.00;;;9.00;99.90;;;;;;5097991;28;20136;-88
2023/06/05 03:13:30;;;;;;;11.65;7.32;;;9.00;99.90;;;;;;5091863;28;20039;-87
2023/06/05 03:15:57;;;;;;;10.30;7.10;;;9.00;99.90;;;;;;5098646;28;20442;-87
2023/06/05 03:18:26;;;;;;;11.27;7.07;;;8.90;99.90;;;;;;5096693;28;20043;-88
2023/06/05 03:20:56;;;;;;;9.48;7.10;;;9.00;99.90;;;;;;5091296;28;20122;-88
2023/06/05 03:23:29;;;;;;;9.50;7.60;;;8.90;99.90;;;;;;5089936;28;20043;-87
2023/06/05 03:25:55;;;;;;;10.88;7.20;;;8.90;99.90;;;;;;5090796;28;20048;-88
2023/06/05 03:28:22;;;;;;;12.13;7.13;;;8.90;99.90;;;;;;5101800;28;20122;-89
2023/06/05 03:30:48;;;;;;;12.35;6.95;;;8.90;99.90;;;;;;5114343;28;20051;-88
2023/06/05 03:33:15;;;;;;;11.82;7.55;;;8.90;99.90;;;;;;5100589;28;20115;-88
2023/06/05 03:35:42;;;;;;;11.20;7.05;;;8.90;99.90;;;;;;5097112;28;20044;-87
2023/06/05 03:38:08;;;;;;;10.68;7.18;;;8.90;99.90;;;;;;5099152;28;20143;-88
2023/06/05 03:40:34;;;;;;;9.70;6.85;;;8.90;99.90;;;;;;5102378;28;20039;-88
2023/06/05 03:43:00;;;;;;;10.45;6.90;;;8.90;99.90;;;;;;5093119;28;20097;-88
2023/06/05 03:45:26;;;;;;;8.25;7.05;;;9.00;99.90;;;;;;5098792;28;20048;-88
2023/06/05 03:47:53;;;;;;;11.95;6.85;;;9.00;99.90;;;;;;5094362;28;20548;-87
2023/06/05 03:50:20;;;;;;;9.55;7.40;;;9.00;99.90;;;;;;5089904;28;20432;-88
2023/06/05 03:52:52;;;;;;;11.27;7.55;;;9.00;99.90;;;;;;5095605;28;20039;-88
2023/06/05 03:55:19;;;;;;;10.73;7.15;;;9.10;99.90;;;;;;5091632;28;20051;-88
2023/06/05 03:57:45;;;;;;;11.20;7.15;;;9.10;99.90;;;;;;5097484;28;20044;-88
2023/06/05 04:00:11;;;;;;;11.00;7.20;;;9.10;99.90;;;;;;5095958;28;20411;-88
2023/06/05 04:02:37;;;;;;;12.77;7.38;;;9.10;99.90;;;;;;5092297;28;21699;-88
2023/06/05 04:05:04;;;;;;;14.35;7.32;;;9.50;99.90;;;;;;5096683;28;20044;-88
2023/06/05 04:07:30;;;;;;;9.77;6.60;;;9.20;99.90;;;;;;5090172;28;20558;-88
2023/06/05 04:09:55;;;;;;;8.90;7.43;;;9.30;99.90;;;;;;5107235;28;20108;-88
2023/06/05 04:12:21;;;;;;;9.80;6.22;;;9.30;99.90;;;;;;5092880;28;20530;-88
2023/06/05 04:14:47;;;;;;;11.70;7.35;;;9.40;99.90;;;;;;5096728;28;20050;-87
2023/06/05 04:17:13;;;;;;;10.95;7.10;;;9.40;99.90;;;;;;5097962;28;20114;-87
2023/06/05 04:19:40;;;;;;;12.20;7.80;;;9.60;99.90;;;;;;5099975;28;20050;-87
2023/06/05 04:22:06;;;;;;;13.02;7.03;;;9.50;99.90;;;;;;5092727;28;20418;-87
2023/06/05 04:24:31;;;;;;;10.25;7.43;;;9.60;99.90;;;;;;5098788;28;20051;-87
2023/06/05 04:27:00;;;;;;;9.43;7.03;;;9.60;99.90;;;;;;5095577;28;20067;-87
2023/06/05 04:29:26;;;;;;;13.30;7.22;;;9.70;99.90;;;;;;5076434;28;20088;-86
2023/06/05 04:31:52;;;;;;;10.93;6.43;;;9.70;99.90;;;;;;5091766;28;20048;-87
2023/06/05 04:34:18;;;;;;;9.57;7.45;;;9.80;99.90;;;;;;5093005;28;20490;-88
2023/06/05 04:36:44;;;;;;;12.23;7.45;;;9.90;99.90;;;;;;5081612;28;20087;-88
2023/06/05 04:39:16;;;;;;;10.57;7.10;;;10.00;99.90;;;;;;5096120;28;20401;-88
2023/06/05 04:41:45;;;;;;;9.93;6.93;;;10.00;99.90;;;;;;5096114;28;20035;-88
2023/06/05 04:44:18;;;;;;;11.32;6.93;;;10.10;99.90;;;;;;5098537;28;20048;-87
2023/06/05 04:46:47;;;;;;;11.35;6.78;;;10.20;99.90;;;;;;5107520;28;20085;-87
2023/06/05 04:49:14;;;;;;;12.60;6.88;;;10.20;99.90;;;;;;5104898;28;20530;-89
2023/06/05 04:51:40;;;;;;;12.18;7.68;;;10.30;99.90;;;;;;5094807;28;20044;-87
2023/06/05 04:54:07;;;;;;;10.13;6.68;;;10.40;99.90;;;;;;5086728;28;20050;-89
2023/06/05 04:56:34;;;;;;;8.13;6.35;;;10.50;99.90;;;;;;5084160;28;20139;-89
2023/06/05 04:59:01;;;;;;;10.25;6.45;;;10.50;99.90;;;;;;5099900;28;20732;-87
2023/06/05 05:01:27;;;;;;;7.88;6.13;;;10.60;99.90;;;;;;5089282;28;20048;-88
2023/06/05 05:03:54;;;;;;;7.55;5.90;;;10.70;99.90;;;;;;5078392;28;20040;-88
2023/06/05 05:06:20;;;;;;;8.60;6.18;;;10.80;99.90;;;;;;5099358;28;20147;-89
2023/06/05 05:08:50;;;;;;;10.80;6.22;;;10.90;99.90;;;;;;5096029;28;20488;-89
2023/06/05 05:11:15;;;;;;;9.00;6.43;;;10.90;99.90;;;;;;5100584;28;20046;-87
2023/06/05 05:13:42;;;;;;;10.75;6.28;;;11.00;99.90;;;;;;5097599;28;20126;-89
2023/06/05 05:16:08;;;;;;;6.40;5.25;;;11.10;99.90;;;;;;5099100;28;20487;-89
2023/06/05 05:18:36;;;;;;;7.38;5.60;;;11.20;99.90;;;;;;5098914;28;20063;-90
2023/06/05 05:21:04;;;;;;;6.07;5.03;;;11.20;99.90;;;;;;5092585;28;20118;-90
2023/06/05 05:23:30;;;;;;;11.50;5.32;;;11.40;99.90;;;;;;5092406;28;20481;-87
2023/06/05 05:25:56;;;;;;;5.45;4.45;;;11.50;99.90;;;;;;5097845;28;20581;-89
2023/06/05 05:28:22;;;;;;;5.97;4.70;;;11.80;99.90;;;;;;5071876;28;20075;-89
2023/06/05 05:30:47;;;;;;;6.35;5.03;;;12.50;99.90;;;;;;5097532;28;20055;-89
2023/06/05 05:33:14;;;;;;;6.93;4.45;;;13.60;99.90;;;;;;5092007;28;20040;-89
2023/06/05 05:35:44;;;;;;;5.75;4.22;;;14.40;99.90;;;;;;5080972;28;20174;-90
2023/06/05 05:38:10;;;;;;;6.88;4.38;;;15.30;99.90;;;;;;5073663;28;20048;-90
2023/06/05 05:40:35;;;;;;;8.38;5.03;;;15.90;99.90;;;;;;5080000;28;20510;-88
2023/06/05 05:43:01;;;;;;;6.03;4.55;;;16.30;99.90;;;;;;5089355;28;20085;-88
2023/06/05 05:45:27;;;;;;;8.45;4.60;;;16.80;99.90;;;;;;5088906;28;20043;-91
2023/06/05 05:47:52;;;;;;;4.60;4.20;;;17.20;99.90;;;;;;5098561;28;20135;-88
2023/06/05 05:50:18;;;;;;;6.15;4.78;;;17.30;99.90;;;;;;5102243;28;20349;-91
2023/06/05 05:52:44;;;;;;;4.78;3.95;;;17.40;99.90;;;;;;5096670;28;20047;-87
2023/06/05 05:55:10;;;;;;;4.75;4.25;;;17.70;99.90;;;;;;5104171;28;20059;-88
2023/06/05 05:57:36;;;;;;;6.80;4.90;;;18.10;99.90;;;;;;5099890;28;20040;-91
2023/06/05 06:00:05;;;;;;;5.60;5.10;;;18.30;99.90;;;;;;5091094;28;20426;-88
2023/06/05 06:02:32;;;;;;;5.50;5.00;;;18.60;99.90;;;;;;5092370;28;20051;-92
2023/06/05 06:04:59;;;;;;;5.18;4.65;;;18.40;99.90;;;;;;5100572;28;20032;-90
2023/06/05 06:07:27;;;;;;;6.18;4.53;;;18.30;99.90;;;;;;5102614;28;20056;-90
2023/06/05 06:09:53;;;;;;;6.10;4.75;;;18.30;99.90;;;;;;5075734;28;20518;-91
2023/06/05 06:12:18;;;;;;;5.32;4.82;;;18.30;99.90;;;;;;5098196;28;20115;-91
2023/06/05 06:14:45;;;;;;;6.07;5.20;;;18.40;99.80;;;;;;5095504;28;20054;-92
2023/06/05 06:17:19;;;;;;;5.55;4.95;;;18.40;99.20;;;;;;5096156;28;20501;-93
2023/06/05 06:19:48;;;;;;;4.85;4.40;;;18.00;98.40;;;;;;5104573;28;20035;-92
2023/06/05 06:22:14;;;;;;;6.78;5.05;;;18.30;98.40;;;;;;5101863;28;20051;-89
2023/06/05 06:24:41;;;;;;;5.43;4.82;;;18.40;98.00;;;;;;5103634;28;20040;-95
2023/06/05 06:27:12;;;;;;;5.30;4.80;;;18.80;97.50;;;;;;5115225;28;20054;-90
2023/06/05 06:29:52;;;;;;;7.35;4.22;;;18.30;96.40;;;;;;5109463;28;20130;-84
2023/06/05 06:32:25;;;;;;;4.68;4.18;;;18.40;95.60;;;;;;5093890;28;20044;-86
2023/06/05 06:34:51;;;;;;;4.38;3.97;;;18.40;95.90;;;;;;5098129;28;20048;-86
2023/06/05 06:37:17;;;;;;;5.38;3.55;;;18.30;96.40;;;;;;5092146;28;20044;-86
2023/06/05 06:39:43;;;;;;;4.50;4.10;;;17.60;97.40;;;;;;5096316;28;20039;-85
2023/06/05 06:42:10;;;;;;;4.28;3.80;;;17.00;99.10;;;;;;5098785;28;20051;-85
2023/06/05 06:44:39;;;;;;;4.43;3.70;;;16.60;99.90;;;;;;5103954;28;20538;-86
2023/06/05 06:47:05;;;;;;;4.88;3.55;;;16.30;99.90;;;;;;5098355;28;20702;-87
2023/06/05 06:49:31;;;;;;;3.35;3.05;;;16.00;99.90;;;;;;5089169;28;20511;-85
2023/06/05 06:51:57;;;;;;;4.20;3.60;;;15.80;99.90;;;;;;5097424;28;20089;-86
2023/06/05 06:54:22;;;;;;;4.13;3.83;;;15.70;99.90;;;;;;5099727;28;20391;-86
2023/06/05 06:56:49;;;;;;;5.05;3.75;;;15.70;99.90;;;;;;5103919;28;20078;-86
2023/06/05 06:59:15;;;;;;;3.53;3.22;;;16.00;99.90;;;;;;5104920;28;20044;-86
2023/06/05 07:01:45;;;;;;;4.55;3.60;;;15.80;99.90;;;;;;5097567;28;20050;-87
2023/06/05 07:04:16;;;;;;;3.78;3.33;;;15.80;99.90;;;;;;5098184;28;20116;-86
2023/06/05 07:06:48;;;;;;;3.45;3.10;;;15.70;99.90;;;;;;5100045;28;20143;-86
2023/06/05 07:09:14;;;;;;;;;;;15.70;99.90;;;;;;5102092;28;20410;-86
2023/06/05 07:11:40;;;;;;;3.00;2.65;;;15.70;99.90;;;;;;5104759;28;19927;-88
2023/06/05 07:14:07;;;;;;;3.20;2.65;;;15.60;99.90;;;;;;5091464;28;20051;-85
2023/06/05 07:16:33;;;;;;;4.03;2.97;;;15.70;99.90;;;;;;5098015;28;20189;-85
2023/06/05 07:18:58;;;;;;;3.08;2.78;;;15.70;99.90;;;;;;5088597;28;20135;-86
2023/06/05 07:21:25;;;;;;;3.70;3.00;;;15.70;99.90;;;;;;5092131;28;20411;-87
2023/06/05 07:23:53;;;;;;;3.90;3.00;;;15.70;99.90;;;;;;5099375;28;20168;-86
2023/06/05 07:26:20;;;;;;;3.95;3.08;;;15.70;99.90;;;;;;5098466;28;20484;-87
2023/06/05 07:28:49;;;;;;;3.92;2.42;;;15.80;99.90;;;;;;5107350;28;20039;-83
2023/06/05 07:31:15;;;;;;;3.47;2.60;;;15.80;99.90;;;;;;5092166;28;20482;-83
2023/06/05 07:33:42;;;;;;;3.67;2.63;;;15.90;99.90;;;;;;5100175;28;20079;-89
2023/06/05 07:36:14;;;;;;;3.95;2.60;;;15.90;99.90;;;;;;5117376;28;20031;-92
2023/06/05 07:38:41;;;;;;;;;;;16.10;99.90;;;;;;5100815;28;20036;-90
2023/06/05 07:41:14;;;;;;;3.15;2.60;;;16.00;99.90;;;;;;5094564;28;19916;-92
2023/06/05 07:43:41;;;;;;;2.70;2.50;;;16.40;99.90;;;;;;5099483;28;20356;-92
2023/06/05 07:46:16;;;;;;;2.83;2.35;;;16.50;99.90;;;;;;5094991;28;20130;-92
2023/06/05 07:48:42;;;;;;;3.40;2.45;;;16.70;99.90;;;;;;5086506;28;20115;-93
2023/06/05 07:51:08;;;;;;;3.38;2.47;;;16.90;99.90;;;;;;5112885;28;20167;-90
2023/06/05 07:53:35;;;;;;;3.22;2.40;;;17.10;99.90;;;;;;5090891;28;20050;-92
2023/06/05 07:56:02;;;;;;;3.35;2.30;;;17.00;99.50;;;;;;5092098;28;20043;-92
2023/06/05 07:58:28;;;;;;;3.53;2.58;;;17.30;99.20;;;;;;5093083;28;20048;-89
2023/06/05 08:00:56;;;;;;;2.60;2.38;;;17.10;98.10;;;;;;5104071;28;20044;-93
2023/06/05 08:03:23;;;;;;;3.15;2.33;;;17.10;98.10;;;;;;5084197;28;20043;-92
2023/06/05 08:05:50;;;;;;;3.58;3.17;;;17.20;98.40;;;;;;5091439;28;20039;-90
2023/06/05 08:08:16;;;;;;;4.53;2.42;;;17.30;98.20;;;;;;5107809;28;20044;-89
2023/06/05 08:10:42;;;;;;;3.13;2.45;;;17.40;98.00;;;;;;5099499;28;20044;-90
2023/06/05 08:13:09;;;;;;;3.63;2.70;;;17.60;97.40;;;;;;5099765;28;20044;-88
2023/06/05 08:15:35;;;;;;;3.95;2.90;;;17.70;96.60;;;;;;5101915;28;20527;-89
2023/06/05 08:18:01;;;;;;;3.55;2.72;;;17.80;96.10;;;;;;5106451;28;20032;-86
2023/06/05 08:20:26;;;;;;;2.92;2.50;;;17.90;95.70;;;;;;5102351;28;20084;-84
2023/06/05 08:22:52;;;;;;;4.07;2.40;;;17.90;95.50;;;;;;5097505;28;20361;-85
2023/06/05 08:25:18;;;;;;;2.70;2.50;;;18.10;95.20;;;;;;5086938;28;20033;-87
2023/06/05 08:27:43;;;;;;;3.72;2.75;;;18.20;94.80;;;;;;5091469;28;20051;-86
2023/06/05 08:30:10;;;;;;;3.40;2.92;;;18.30;94.30;;;;;;5085333;28;20090;-87
2023/06/05 08:32:36;;;;;;;2.85;2.40;;;18.40;93.60;;;;;;5098705;28;20067;-89
2023/06/05 08:35:03;;;;;;;3.53;2.38;;;18.20;93.10;;;;;;5086484;28;20044;-88
2023/06/05 08:37:30;;;;;;;3.47;2.88;;;18.20;93.00;;;;;;5102507;28;20169;-90
2023/06/05 08:40:00;;;;;;;2.80;2.40;;;18.30;92.90;;;;;;5087187;28;20033;-90
2023/06/05 08:42:28;;;;;;;2.40;2.20;;;18.40;92.60;;;;;;5082054;28;20442;-92
2023/06/05 08:44:54;;;;;;;2.20;2.00;;;18.40;92.10;;;;;;5110387;28;20052;-90
2023/06/05 08:47:23;;;;;;;2.72;2.50;;;18.60;91.60;;;;;;5081625;28;20059;-89
2023/06/05 08:49:52;;;;;;;2.40;2.17;;;18.70;91.30;;;;;;5102609;28;20064;-88
2023/06/05 08:52:21;;;;;;;3.33;2.55;;;18.70;91.00;;;;;;5099823;28;20050;-89
2023/06/05 08:54:49;;;;;;;3.20;2.42;;;18.80;90.60;;;;;;5097882;28;20048;-89
2023/06/05 08:57:16;;;;;;;2.53;2.33;;;18.80;90.50;;;;;;5090462;28;20502;-88
2023/06/05 08:59:43;;;;;;;2.53;2.33;;;18.80;90.40;;;;;;5099898;28;20043;-88
2023/06/05 09:02:09;;;;;;;3.10;2.72;;;18.90;90.10;;;;;;5092431;28;20044;-89
2023/06/05 09:04:36;;;;;;;2.83;2.50;;;19.40;89.10;;;;;;5102849;28;20122;-89
2023/06/05 09:07:03;;;;;;;2.38;2.17;;;19.00;88.60;;;;;;5101812;28;20055;-87
2023/06/05 09:09:29;;;;;;;3.63;2.80;;;19.00;88.50;;;;;;5100092;28;20471;-86
2023/06/05 09:12:05;;;;;;;3.17;2.38;;;19.10;88.40;;;;;;5088425;28;20075;-87
2023/06/05 09:14:32;;;;;;;3.40;2.67;;;19.10;87.60;;;;;;5097028;28;20052;-88
2023/06/05 09:17:00;;;;;;;3.17;2.35;;;19.20;87.60;;;;;;5078946;28;20511;-87
2023/06/05 09:19:39;;;;;;;2.42;1.95;;;19.40;87.00;;;;;;5094684;28;20101;-85
2023/06/05 09:22:07;;;;;;;4.10;2.20;;;19.40;85.10;;;;;;5082996;28;20559;-84
2023/06/05 09:24:33;;;;;;;5.10;2.40;;;19.30;86.00;;;;;;5100730;28;20171;-83
2023/06/05 09:26:58;;;;;;;3.88;2.15;;;19.40;86.10;;;;;;5107661;28;20138;-84
2023/06/05 09:29:32;;;;;;;3.25;2.30;;;19.40;85.20;;;;;;5104466;28;20582;-93
2023/06/05 09:31:59;;;;;;;2.42;2.22;;;19.50;84.40;;;;;;5093148;28;20044;-84
2023/06/05 09:34:28;;;;;;;2.63;2.42;;;19.40;84.10;;;;;;5096001;28;20043;-85
2023/06/05 09:36:57;;;;;;;2.15;1.90;;;19.50;84.00;;;;;;5095958;28;20052;-92
2023/06/05 09:39:49;;;;;;;3.90;2.33;;;19.80;83.50;;;;;;5096463;28;20054;-95
2023/06/05 09:42:15;;;;;;;2.83;2.10;;;19.70;80.20;;;;;;5078860;28;20044;-92
2023/06/05 09:44:58;;;;;;;3.40;2.08;;;19.80;82.20;;;;;;5093396;28;20032;-83
2023/06/05 09:47:23;;;;;;;3.50;2.30;;;19.90;80.50;;;;;;5101220;28;20100;-84
2023/06/05 09:49:49;;;;;;;3.00;2.15;;;19.90;81.30;;;;;;5100779;28;20842;-84
2023/06/05 09:52:15;;;;;;;3.60;2.22;;;20.00;80.80;;;;;;5107506;28;20067;-83
2023/06/05 09:54:44;;;;;;;2.85;2.10;;;20.00;80.80;;;;;;5094823;28;20062;-84
2023/06/05 09:57:11;;;;;;;2.92;2.40;;;20.10;79.80;;;;;;5108700;28;20533;-83
2023/06/05 09:59:45;;;;;;;2.55;2.30;;;20.30;79.70;;;;;;5096782;28;20126;-85
2023/06/05 10:02:16;;;;;;;4.47;2.75;;;20.20;77.90;;;;;;5089818;28;20048;-84
2023/06/05 10:04:56;;;;;;;2.97;2.50;;;20.20;79.10;;;;;;5079362;28;20048;-83
2023/06/05 10:07:23;;;;;;;3.08;2.38;;;20.00;78.40;;;;;;5089764;28;20040;-84
2023/06/05 10:09:50;;;;;;;2.60;2.35;;;20.10;79.10;;;;;;5065255;28;20046;-85
2023/06/05 10:12:16;;;;;;;5.75;2.53;;;20.10;79.00;;;;;;5062632;28;20040;-83
2023/06/05 10:14:43;;;;;;;2.20;2.00;;;20.50;78.40;;;;;;5071188;28;20044;-84
2023/06/05 10:17:12;;;;;;;3.50;2.33;;;20.40;77.90;;;;;;5079200;28;20055;-83
2023/06/05 10:19:44;;;;;;;2.67;2.38;;;20.40;77.20;;;;;;5063641;28;20906;-86
2023/06/05 10:22:18;;;;;;;4.00;2.63;;;20.60;77.10;;;;;;5081697;28;20041;-84
2023/06/05 10:25:00;;;;;;;2.42;2.15;;;20.40;77.00;;;;;;5077892;28;20098;-82
2023/06/05 10:27:47;;;;;;;4.35;2.38;;;20.40;76.40;;;;;;5073709;28;20040;-82
2023/06/05 10:30:25;;;;;;;3.25;2.05;;;20.50;75.50;;;;;;5078045;28;20052;-81
2023/06/05 10:33:05;;;;;;;7.80;2.30;;;20.50;75.60;;;;;;5069483;28;20127;-83
2023/06/05 10:35:36;;;;;;;3.45;2.70;;;20.50;75.30;;;;;;5071401;28;20518;-82
2023/06/05 10:38:18;;;;;;;3.45;2.40;;;20.40;75.30;;;;;;5068527;28;20048;-80
2023/06/05 10:40:46;;;;;;;2.58;2.38;;;20.30;75.30;;;;;;5070251;28;20385;-82
2023/06/05 10:43:48;;;;;;;2.85;2.50;;;20.40;75.60;;;;;;5068843;28;20078;-79
2023/06/05 10:46:35;;;;;;;2.97;2.50;;;20.40;73.70;;;;;;5077047;28;20131;-80
2023/06/05 10:49:08;;;;;;;3.42;2.33;;;20.50;73.90;;;;;;5088649;28;20051;-79
2023/06/05 10:51:46;;;;;;;2.63;2.38;;;20.80;73.90;;;;;;5089734;28;20040;-78
2023/06/05 10:54:38;;;;;;;2.30;2.10;;;20.80;71.90;;;;;;5071479;28;20048;-78
2023/06/05 10:57:06;;;;;;;3.05;1.95;;;20.70;72.80;;;;;;5080943;28;20063;-79
2023/06/05 10:59:34;;;;;;;2.75;2.20;;;20.90;73.70;;;;;;5088923;28;20042;-79
2023/06/05 11:02:14;;;;;;;2.53;2.33;;;20.90;73.60;;;;;;5089426;28;20040;-79
2023/06/05 11:04:46;;;;;;;3.50;2.30;;;21.10;72.40;;;;;;5089009;28;20044;-79
2023/06/05 11:07:16;;;;;;;;;;;21.10;72.00;;;;;;5071159;28;20500;-79
2023/06/05 11:10:07;;;;;;;3.28;2.40;;;21.00;70.20;;;;;;5088318;28;20063;-79
2023/06/05 11:12:35;;;;;;;3.72;2.95;;;21.00;71.90;;;;;;5088005;28;20051;-79
2023/06/05 11:15:08;;;;;;;3.38;2.50;;;20.90;72.70;;;;;;5087851;28;20044;-79
2023/06/05 11:17:38;;;;;;;3.08;2.78;;;21.00;71.90;;;;;;5088298;28;20043;-80
2023/06/05 11:20:24;;;;;;;3.15;2.55;;;20.90;71.60;;;;;;5086901;28;20040;-80
2023/06/05 11:22:53;;;;;;;3.17;2.75;;;21.00;69.30;;;;;;5074863;28;20507;-79
2023/06/05 11:25:21;;;;;;;2.53;2.17;;;21.00;71.30;;;;;;5089063;28;20418;-79
2023/06/05 11:27:51;;;;;;;2.70;2.47;;;21.30;71.00;;;;;;5089746;28;20059;-79
2023/06/05 11:30:22;;;;;;;3.15;2.45;;;21.30;70.50;;;;;;5088947;28;20506;-80
2023/06/05 11:32:51;;;;;;;2.58;2.38;;;21.40;69.70;;;;;;5088444;28;20044;-79
2023/06/05 11:35:20;;;;;;;2.90;2.60;;;21.40;70.00;;;;;;5088653;28;20154;-79
2023/06/05 11:37:46;;;;;;;4.35;2.33;;;21.40;68.80;;;;;;5089282;28;20047;-79
2023/06/05 11:40:24;;;;;;;3.30;2.72;;;21.50;69.50;;;;;;5089605;28;20040;-79
2023/06/05 11:42:49;;;;;;;2.80;2.25;;;21.70;68.80;;;;;;5087699;28;20122;-79
2023/06/05 11:45:15;;;;;;;4.85;2.60;;;21.70;69.00;;;;;;5088319;28;20040;-79
2023/06/05 11:47:41;;;;;;;3.80;2.80;;;21.70;68.40;;;;;;5089190;28;20162;-79
2023/06/05 11:50:14;;;;;;;3.15;2.60;;;21.80;67.90;;;;;;5088622;28;20074;-79
2023/06/05 11:52:40;;;;;;;3.35;2.30;;;21.70;67.40;;;;;;5089507;28;20055;-79
2023/06/05 11:55:19;;;;;;;3.05;2.42;;;21.60;67.50;;;;;;5087488;28;20562;-80
2023/06/05 11:57:49;;;;;;;5.10;2.78;;;21.60;67.50;;;;;;5088920;28;20449;-80
2023/06/05 12:00:22;;;;;;;3.10;2.35;;;21.60;67.80;;;;;;5087910;28;20091;-80
2023/06/05 12:02:48;;;;;;;4.15;2.50;;;21.70;67.90;;;;;;5089480;28;20042;-80
2023/06/05 12:05:14;;;;;;;2.85;2.25;;;21.70;67.70;;;;;;5088623;28;20552;-80
2023/06/05 12:07:39;;;;;;;3.20;2.65;;;21.60;67.60;;;;;;5088553;28;20040;-80
2023/06/05 12:10:07;;;;;;;2.83;2.28;;;21.70;67.40;;;;;;5088823;28;20159;-79
2023/06/05 12:12:34;;;;;;;2.85;2.55;;;21.70;67.00;;;;;;5087751;28;20127;-80
2023/06/05 12:15:15;;;;;;;3.15;2.05;;;22.00;67.00;;;;;;5087569;28;20074;-80
2023/06/05 12:17:59;;;;;;;3.00;2.22;;;22.00;66.90;;;;;;5088331;28;20091;-80
2023/06/05 12:20:26;;;;;;;2.95;2.20;;;22.00;65.70;;;;;;5087664;28;20048;-79
2023/06/05 12:22:52;;;;;;;3.47;2.42;;;22.00;66.20;;;;;;5087089;28;20090;-79
2023/06/05 12:25:19;;;;;;;2.50;2.30;;;22.30;66.20;;;;;;5086980;28;20079;-79
2023/06/05 12:27:48;;;;;;;3.13;2.42;;;22.30;65.70;;;;;;5088377;28;20083;-79
2023/06/05 12:30:16;;;;;;;3.72;2.42;;;22.50;65.00;;;;;;5086637;28;20135;-79
2023/06/05 12:32:46;;;;;;;3.47;2.42;;;22.40;64.80;;;;;;5086432;28;20044;-79
2023/06/05 12:35:22;;;;;;;2.47;2.00;;;22.10;64.70;;;;;;5086564;28;20036;-78
2023/06/05 12:37:48;;;;;;;3.95;2.50;;;22.50;64.80;;;;;;5086805;28;20043;-79
2023/06/05 12:40:17;;;;;;;3.97;2.47;;;22.50;64.80;;;;;;5087971;28;20065;-79
2023/06/05 12:42:43;;;;;;;4.78;2.35;;;22.70;65.00;;;;;;5069464;28;20050;-79
2023/06/05 12:45:10;;;;;;;3.55;2.47;;;22.60;64.90;;;;;;5087813;28;20115;-79
2023/06/05 12:47:37;;;;;;;2.35;1.90;;;22.60;64.40;;;;;;5088496;28;20044;-79
2023/06/05 12:50:07;;;;;;;3.50;2.20;;;22.60;64.00;;;;;;5087553;28;20075;-79
2023/06/05 12:52:33;;;;;;;2.97;2.17;;;22.40;63.90;;;;;;5086726;28;20048;-79
2023/06/05 12:55:00;;;;;;;5.50;2.42;;;22.50;64.20;;;;;;5086589;28;20533;-79
2023/06/05 12:57:26;;;;;;;3.03;2.55;;;22.40;64.10;;;;;;5086533;28;20091;-80